Aiken, SC (29801)

5:45 AM EST on January 24, 2017 (GMT -0500)
Mead Hall Episcopal School | | Change Station
Active Advisory: Small Craft Advisory

Elev 561 ft 33.56 °N, 81.73 °W | Updated 11 seconds ago

Clear
Clear
46.2 °F
Feels Like 46 °F
N
0.4
Wind Variable Wind from West
Gusts 2.5 mph

Today
High -- | Low -- °F
--% Chance of Precip.
Yesterday
High -- | Low -- °F
Precip. -- in
Pressure 29.67 in
Visibility 10.0 miles
Clouds Clear
Windchill 46 °F
Dew Point 8 °F
Humidity 21%
Rainfall 0.00 in
Snow Depth Not available.
7:27 AM 5:50 PM
Waning Crescent, 12% visible
METAR KAIK 241035Z AUTO 26007KT 10SM CLR 07/05 A2967 RMK AO2
Pressure 29.67 in
Visibility 10.0 miles
Clouds Clear
Windchill 46 °F
Dew Point 8 °F
Humidity 21%
Rainfall 0.00 in
Snow Depth Not available.
7:27 AM 5:50 PM
Waning Crescent, 12% visible
METAR KAIK 241035Z AUTO 26007KT 10SM CLR 07/05 A2967 RMK AO2

Get Your Daily Forecast Email!

Thanks for signing up!

Be on the lookout for a verification email in your inbox.

You'll start receiving the daily forecast at 8 AM.

×

10-Day Weather Forecast

Almanac

Astronomy

Jan. 24, 2017 Rise Set
Actual Time
Civil Twilight
Nautical Twilight
Astronomical Twilight
Moon
Length of Visible Light
Length of Day
Tomorrow will be .
, % of the Moon is Illuminated

Today's Extremes

State Highs State Lows

Community

WunderPhotos

Upload Photos

1,962,540 photos uploaded!

WunderBlog® & News

Nearby

Air Quality

  Air Quality AQ Index Pollutant
Not available.

Snow Depth

Station Depth Elevation

Earthquake Activity

City Distance Mag. Time & Date
Minimum magnitude displayed is 2.5.

Coastal Water Temperatures

Place Temperature

Stations

Nearby Weather Stations

Station Location Temp. Windchill Dew Point Humidity Wind Precip. Elev Updated Type
                   

Watches & Warnings

Small Craft Advisory
Issued: 3:15 AM EST Jan. 24, 2017 – National Weather Service

... Small Craft Advisory remains in effect until 10 am EST this
morning...

* impacts... wind and or wave conditions will be hazardous to
small craft.

Precautionary/preparedness actions...

During a Small Craft Advisory... inexperienced mariners...
especially those operating smaller vessels... should avoid
navigating in hazardous conditions.